Time;durP1;ratioP1;P1;durP2;ratioP2;P2;SDS_P1;SDS_P2;PMS_P1;PMS_P2;Temp;Humidity;BMP_temperature;BMP_pressure;BME280_temperature;BME280_humidity;BME280_pressure;Samples;Min_cycle;Max_cycle;Signal;HPM_P1;HPM_P2
2023/04/15 00:01:33;;;;;;;4.35;2.55;;;;;;;12.26;93.38;97860.22;5092758;28;20489;-47
2023/04/15 00:03:59;;;;;;;5.80;2.72;;;;;;;12.30;93.25;97869.25;5109693;28;20040;-47
2023/04/15 00:06:25;;;;;;;6.60;2.78;;;;;;;12.27;92.89;97868.91;5094021;28;20046;-47
2023/04/15 00:08:50;;;;;;;7.47;3.00;;;;;;;12.32;93.27;97863.75;5108651;28;20028;-47
2023/04/15 00:11:17;;;;;;;15.50;6.50;;;;;;;12.26;91.93;97865.47;5092619;28;20485;-47
2023/04/15 00:13:43;;;;;;;15.90;7.30;;;;;;;12.08;92.12;97863.00;5109483;28;20053;-47
2023/04/15 00:16:09;;;;;;;15.52;7.45;;;;;;;12.06;92.89;97862.41;5093756;28;20144;-47
2023/04/15 00:18:36;;;;;;;10.10;4.57;;;;;;;12.07;93.38;97861.38;5109332;28;20114;-47
2023/04/15 00:21:03;;;;;;;25.00;9.88;;;;;;;12.23;94.17;97867.75;5093670;28;20490;-46
2023/04/15 00:23:29;;;;;;;218.63;16.80;;;;;;;12.35;93.69;97865.91;5093593;28;20052;-46
2023/04/15 00:25:54;;;;;;;9.77;5.03;;;;;;;12.31;93.36;97867.41;5092548;28;20059;-48
2023/04/15 00:28:20;;;;;;;6.93;3.58;;;;;;;12.24;93.88;97870.16;5109400;28;20046;-47
2023/04/15 00:30:46;;;;;;;6.18;2.83;;;;;;;12.11;94.28;97876.47;5109006;28;20118;-45
2023/04/15 00:33:15;;;;;;;11.50;2.75;;;;;;;12.01;95.29;97863.09;5093326;28;20081;-47
2023/04/15 00:35:41;;;;;;;10.73;6.07;;;;;;;11.91;95.18;97863.69;5091987;28;20024;-47
2023/04/15 00:38:10;;;;;;;30.15;14.43;;;;;;;11.74;95.31;97860.88;5093249;28;20401;-47
2023/04/15 00:40:36;;;;;;;166.27;71.43;;;;;;;11.35;94.75;97865.75;5091851;28;20027;-47
2023/04/15 00:43:03;;;;;;;314.58;125.82;;;;;;;11.29;97.30;97869.28;5091977;28;20107;-47
2023/04/15 00:45:29;;;;;;;126.57;52.83;;;;;;;11.31;97.70;97864.63;5093121;28;20054;-48
2023/04/15 00:47:55;;;;;;;27.98;10.27;;;;;;;11.22;97.51;97867.78;5074967;28;20028;-47
2023/04/15 00:50:21;;;;;;;14.20;7.03;;;;;;;11.00;96.06;97860.41;5093043;28;20039;-48
2023/04/15 00:52:47;;;;;;;18.90;7.38;;;;;;;10.85;95.96;97857.41;5108776;28;20036;-47
2023/04/15 00:55:14;;;;;;;12.52;5.70;;;;;;;10.89;97.30;97858.56;5092984;28;20486;-48
2023/04/15 00:57:40;;;;;;;5.88;2.45;;;;;;;10.95;97.22;97857.66;5108532;28;20032;-48
2023/04/15 01:00:10;;;;;;;5.43;2.20;;;;;;;10.89;97.00;97861.97;5092827;28;20039;-47
2023/04/15 01:02:36;;;;;;;9.43;3.85;;;;;;;10.81;96.47;97849.16;5092862;28;20031;-48
2023/04/15 01:05:03;;;;;;;6.13;2.67;;;;;;;10.80;96.90;97855.41;5093022;28;20038;-47
2023/04/15 01:07:30;;;;;;;9.57;2.83;;;;;;;10.84;97.47;97856.56;5092730;28;20401;-48
2023/04/15 01:09:56;;;;;;;8.93;2.63;;;;;;;10.89;98.17;97850.69;5092663;28;20030;-47
2023/04/15 01:12:25;;;;;;;4.95;2.38;;;;;;;10.84;98.19;97856.56;5092573;28;20030;-47
2023/04/15 01:14:52;;;;;;;34.17;13.00;;;;;;;10.72;97.33;97847.84;5092609;28;20020;-48
2023/04/15 01:17:18;;;;;;;32.42;9.43;;;;;;;10.64;97.36;97856.81;5092522;28;20027;-48
2023/04/15 01:19:44;;;;;;;32.88;11.25;;;;;;;10.55;97.44;97861.59;5092274;28;20036;-48
2023/04/15 01:22:09;;;;;;;105.65;31.45;;;;;;;10.52;97.90;97863.84;5092446;28;20507;-47
2023/04/15 01:24:36;;;;;;;114.68;48.88;;;;;;;10.54;98.66;97864.41;5092410;28;20032;-47
2023/04/15 01:27:04;;;;;;;133.10;61.05;;;;;;;10.67;99.88;97872.13;5091387;28;20052;-47
2023/04/15 01:29:31;;;;;;;329.17;153.63;;;;;;;10.82;100.00;97873.56;5090847;28;20051;-48
2023/04/15 01:31:57;;;;;;;666.95;372.98;;;;;;;11.05;100.00;97878.94;5092287;28;20032;-48
2023/04/15 01:34:22;;;;;;;379.77;180.75;;;;;;;11.27;100.00;97881.03;5092263;28;20043;-47
2023/04/15 01:36:48;;;;;;;378.48;187.20;;;;;;;11.19;100.00;97877.72;5090946;28;20506;-48
2023/04/15 01:39:14;;;;;;;190.40;85.55;;;;;;;11.27;100.00;97868.72;5090811;28;20051;-47
2023/04/15 01:41:41;;;;;;;30.50;12.70;;;;;;;11.18;100.00;97870.84;5092399;28;20032;-48
2023/04/15 01:44:07;;;;;;;83.45;30.95;;;;;;;11.00;99.79;97873.53;5092353;28;20070;-47
2023/04/15 01:46:33;;;;;;;44.35;14.93;;;;;;;10.88;98.66;97867.44;5092106;28;20034;-47
2023/04/15 01:48:59;;;;;;;45.83;17.75;;;;;;;10.72;98.55;97872.25;5090807;28;20027;-47
2023/04/15 01:51:24;;;;;;;171.05;66.65;;;;;;;10.62;98.45;97879.84;5090754;28;20036;-47
2023/04/15 01:53:51;;;;;;;96.45;36.15;;;;;;;10.60;99.36;97874.03;5092179;28;20117;-47
2023/04/15 01:56:17;;;;;;;23.83;9.23;;;;;;;10.66;100.00;97880.22;5092029;28;20024;-48
2023/04/15 01:58:43;;;;;;;6.55;3.05;;;;;;;10.75;100.00;97876.28;5091968;28;20032;-47
2023/04/15 02:01:10;;;;;;;3.95;1.90;;;;;;;10.82;100.00;97879.63;5107692;28;20028;-47
2023/04/15 02:03:36;;;;;;;4.82;1.92;;;;;;;10.79;99.26;97865.13;5091938;28;20032;-47
2023/04/15 02:06:03;;;;;;;7.75;2.53;;;;;;;10.74;97.81;97870.22;5090654;28;20107;-47
2023/04/15 02:08:29;;;;;;;13.82;3.65;;;;;;;10.71;97.75;97856.75;5091794;28;20024;-47
2023/04/15 02:10:55;;;;;;;16.20;5.85;;;;;;;10.79;97.95;97861.69;5091874;28;20024;-47
2023/04/15 02:13:20;;;;;;;40.97;14.63;;;;;;;10.81;98.47;97859.66;5091847;28;20027;-48
2023/04/15 02:15:51;;;;;;;13.40;2.80;;;;;;;10.96;98.05;97860.03;5091842;28;20028;-48
2023/04/15 02:18:17;;;;;;;5.53;2.05;;;;;;;11.05;97.06;97865.00;5107362;28;20028;-48
2023/04/15 02:20:43;;;;;;;7.50;2.42;;;;;;;10.98;96.75;97846.69;5092011;28;20102;-48
2023/04/15 02:23:09;;;;;;;4.32;1.77;;;;;;;11.04;96.01;97852.88;5107417;28;20057;-48
2023/04/15 02:25:36;;;;;;;4.13;1.33;;;;;;;11.03;95.11;97852.09;5091981;28;20028;-48
2023/04/15 02:28:01;;;;;;;5.22;1.60;;;;;;;11.31;96.94;97856.72;5090503;28;20055;-48
2023/04/15 02:30:27;;;;;;;3.20;1.25;;;;;;;11.46;96.11;97851.03;5091482;28;20078;-48
2023/04/15 02:32:53;;;;;;;5.75;1.60;;;;;;;11.49;95.69;97860.28;5111069;28;20028;-48
2023/04/15 02:35:18;;;;;;;4.45;1.33;;;;;;;11.51;95.37;97866.13;5095684;28;20031;-48
2023/04/15 02:37:45;;;;;;;4.47;1.20;;;;;;;11.48;95.41;97866.59;5111330;28;20028;-48
2023/04/15 02:40:11;;;;;;;4.55;1.25;;;;;;;11.32;94.48;97862.78;5111196;28;20497;-48
2023/04/15 02:42:41;;;;;;;4.30;1.27;;;;;;;11.37;95.43;97855.84;5111257;28;20122;-49
2023/04/15 02:45:07;;;;;;;4.75;1.50;;;;;;;11.42;95.29;97855.16;5077400;28;20024;-49
2023/04/15 02:47:34;;;;;;;2.63;1.08;;;;;;;11.51;94.45;97860.84;5111113;28;20032;-48
2023/04/15 02:50:03;;;;;;;2.30;1.00;;;;;;;11.52;93.65;97863.25;5095630;28;20024;-48
2023/04/15 02:52:29;;;;;;;3.22;1.38;;;;;;;11.54;93.57;97868.31;5094033;28;20493;-48
2023/04/15 02:54:59;;;;;;;3.28;1.42;;;;;;;11.49;93.92;97870.78;5094064;28;20039;-48
2023/04/15 02:57:26;;;;;;;2.60;0.98;;;;;;;11.39;94.13;97866.91;5095540;28;20489;-48
2023/04/15 02:59:52;;;;;;;4.07;1.30;;;;;;;11.31;95.30;97859.34;5095411;28;20024;-48
2023/04/15 03:02:18;;;;;;;4.78;1.30;;;;;;;11.23;95.05;97867.56;5110815;28;20459;-48
2023/04/15 03:04:43;;;;;;;6.15;1.50;;;;;;;11.20;95.70;97854.88;5110892;28;20043;-48
2023/04/15 03:07:09;;;;;;;2.33;0.90;;;;;;;11.12;95.21;97855.97;5094962;28;20024;-48
2023/04/15 03:09:35;;;;;;;5.80;1.23;;;;;;;10.94;94.87;97859.47;5095050;28;20393;-47
2023/04/15 03:12:01;;;;;;;2.40;1.20;;;;;;;10.85;96.07;97857.41;5094966;28;20265;-47
2023/04/15 03:14:27;;;;;;;3.10;1.35;;;;;;;10.84;96.12;97861.03;5094866;28;20048;-47
2023/04/15 03:16:52;;;;;;;3.20;1.20;;;;;;;10.77;96.00;97859.28;5110812;28;20403;-47
2023/04/15 03:19:18;;;;;;;2.95;1.10;;;;;;;10.72;96.66;97853.91;5110769;28;20392;-48
2023/04/15 03:21:43;;;;;;;8.45;1.90;;;;;;;10.76;97.47;97857.69;5093538;28;20032;-48
2023/04/15 03:24:09;;;;;;;2.83;1.23;;;;;;;10.68;96.61;97854.56;5094752;28;20081;-48
2023/04/15 03:26:35;;;;;;;3.33;1.10;;;;;;;10.58;96.53;97857.72;5094733;28;20103;-48
2023/04/15 03:29:01;;;;;;;10.68;1.48;;;;;;;10.62;97.83;97848.38;5094470;28;20024;-48
2023/04/15 03:31:27;;;;;;;6.53;1.60;;;;;;;10.95;99.85;97853.19;5094565;28;20047;-48
2023/04/15 03:33:52;;;;;;;3.97;1.70;;;;;;;10.98;99.59;97837.00;5094603;28;20032;-48
2023/04/15 03:36:18;;;;;;;5.15;1.25;;;;;;;10.92;99.01;97840.50;5093321;28;20482;-48
2023/04/15 03:38:44;;;;;;;5.45;1.08;;;;;;;10.83;98.09;97847.13;5110077;28;20498;-48
2023/04/15 03:41:09;;;;;;;5.50;1.27;;;;;;;10.75;98.11;97844.78;5110088;28;20039;-47
2023/04/15 03:43:35;;;;;;;5.10;1.20;;;;;;;10.63;97.53;97841.31;5108705;28;20079;-47
2023/04/15 03:46:01;;;;;;;3.63;1.00;;;;;;;10.58;98.06;97842.78;5094343;28;20028;-47
2023/04/15 03:48:27;;;;;;;4.97;1.10;;;;;;;10.52;98.10;97846.28;5110223;28;20028;-47
2023/04/15 03:50:53;;;;;;;10.00;1.25;;;;;;;10.47;97.63;97853.22;5092909;28;20039;-47
2023/04/15 03:53:20;;;;;;;38.63;34.75;;;;;;;10.39;97.42;97859.56;5094247;28;20099;-48
2023/04/15 03:55:45;;;;;;;35.13;31.88;;;;;;;10.37;98.32;97857.16;5093105;28;20028;-47
2023/04/15 03:58:11;;;;;;;4.38;3.30;;;;;;;10.52;99.75;97859.41;5094010;28;20030;-47
2023/04/15 04:00:38;;;;;;;4.47;0.98;;;;;;;10.70;100.00;97860.38;5109985;28;20028;-47
2023/04/15 04:03:04;;;;;;;5.32;1.30;;;;;;;10.73;100.00;97859.97;5092795;28;20099;-48
2023/04/15 04:05:30;;;;;;;15.18;2.17;;;;;;;10.81;100.00;97864.13;5109667;28;20517;-47
2023/04/15 04:07:55;;;;;;;9.93;2.15;;;;;;;10.83;100.00;97862.84;5093920;28;20570;-47
2023/04/15 04:10:21;;;;;;;5.65;1.63;;;;;;;10.75;100.00;97869.22;5109529;28;20028;-48
2023/04/15 04:12:47;;;;;;;2.08;1.20;;;;;;;10.68;100.00;97865.06;5092630;28;20051;-47
2023/04/15 04:15:12;;;;;;;7.68;1.80;;;;;;;10.71;100.00;97877.75;5093981;28;20093;-48
2023/04/15 04:17:38;;;;;;;3.10;1.05;;;;;;;10.74;100.00;97872.06;5093780;28;20027;-47
2023/04/15 04:20:04;;;;;;;1.88;0.90;;;;;;;10.64;100.00;97872.56;5093864;28;20507;-48
2023/04/15 04:22:30;;;;;;;10.68;2.85;;;;;;;10.78;100.00;97878.47;5075578;28;20031;-48
2023/04/15 04:24:58;;;;;;;9.43;1.90;;;;;;;11.06;100.00;97872.63;5093608;28;20393;-48
2023/04/15 04:27:25;;;;;;;7.82;3.78;;;;;;;11.25;100.00;97873.41;5093420;28;20031;-48
2023/04/15 04:29:50;;;;;;;1.30;0.75;;;;;;;11.33;100.00;97877.53;5093263;28;20064;-48
2023/04/15 04:32:16;;;;;;;7.20;1.27;;;;;;;11.31;100.00;97862.00;5093464;28;20103;-47
2023/04/15 04:34:42;;;;;;;3.58;1.13;;;;;;;11.33;100.00;97865.19;5109079;28;20073;-48
2023/04/15 04:37:07;;;;;;;5.82;1.23;;;;;;;11.27;100.00;97863.47;5109014;28;20027;-48
2023/04/15 04:39:33;;;;;;;2.60;1.20;;;;;;;11.18;100.00;97867.41;5093250;28;20043;-48
2023/04/15 04:41:58;;;;;;;6.97;2.42;;;;;;;11.15;100.00;97871.31;5108858;28;20063;-48
2023/04/15 04:44:24;;;;;;;2.22;1.08;;;;;;;11.11;100.00;97878.03;5093227;28;20024;-48
2023/04/15 04:46:50;;;;;;;3.83;1.20;;;;;;;11.07;100.00;97871.63;5093113;28;20070;-48
2023/04/15 04:49:15;;;;;;;3.83;0.90;;;;;;;10.98;100.00;97872.94;5093036;28;20375;-47
2023/04/15 04:51:41;;;;;;;4.18;1.60;;;;;;;10.82;100.00;97866.50;5093127;28;20107;-48
2023/04/15 04:54:07;;;;;;;5.60;1.90;;;;;;;10.93;100.00;97872.84;5092590;28;20024;-47
2023/04/15 04:56:33;;;;;;;6.78;4.32;;;;;;;11.09;100.00;97874.03;5108632;28;20025;-48
2023/04/15 04:58:59;;;;;;;2.67;1.17;;;;;;;11.10;100.00;97883.50;5092864;28;20120;-47
2023/04/15 05:01:26;;;;;;;6.72;1.10;;;;;;;11.20;100.00;97873.25;5074724;28;20464;-48
2023/04/15 05:03:52;;;;;;;3.55;0.95;;;;;;;11.28;100.00;97880.00;5092819;28;20105;-48
2023/04/15 05:06:17;;;;;;;3.17;1.05;;;;;;;11.36;100.00;97883.09;5108440;28;20484;-48
2023/04/15 05:08:43;;;;;;;8.07;5.43;;;;;;;11.36;100.00;97879.69;5108407;28;20489;-47
2023/04/15 05:11:09;;;;;;;3.05;0.82;;;;;;;11.24;100.00;97879.66;5108320;28;20027;-47
2023/04/15 05:13:37;;;;;;;2.38;0.80;;;;;;;11.12;100.00;97884.88;5092699;28;20028;-47
2023/04/15 05:16:04;;;;;;;2.08;0.80;;;;;;;11.13;100.00;97883.06;5092547;28;20094;-47
2023/04/15 05:18:30;;;;;;;1.42;0.80;;;;;;;11.18;100.00;97888.44;5092515;28;20028;-47
2023/04/15 05:20:56;;;;;;;2.83;0.73;;;;;;;11.08;98.69;97882.91;5108493;28;20027;-47
2023/04/15 05:23:22;;;;;;;1.80;1.10;;;;;;;11.04;97.95;97889.66;5108250;28;20465;-47
2023/04/15 05:25:48;;;;;;;4.10;1.02;;;;;;;11.05;97.90;97886.81;5108106;28;20161;-47
2023/04/15 05:28:13;;;;;;;3.08;0.70;;;;;;;11.19;98.99;97884.78;5092402;28;20151;-47
2023/04/15 05:30:39;;;;;;;6.78;1.70;;;;;;;11.26;99.02;97889.94;5107839;28;20055;-47
2023/04/15 05:33:05;;;;;;;2.00;0.90;;;;;;;11.31;99.21;97887.47;5107956;28;20493;-47
2023/04/15 05:35:30;;;;;;;3.97;1.08;;;;;;;11.46;99.46;97898.31;5091039;28;20043;-47
2023/04/15 05:37:56;;;;;;;2.33;0.88;;;;;;;11.66;98.98;97889.34;5091070;28;20023;-48
2023/04/15 05:40:22;;;;;;;3.72;0.77;;;;;;;11.91;98.19;97883.91;5107842;28;20028;-47
2023/04/15 05:42:48;;;;;;;3.00;0.57;;;;;;;11.97;96.24;97896.13;5107839;28;20051;-46
2023/04/15 05:45:13;;;;;;;4.07;1.15;;;;;;;12.12;95.38;97907.00;5092165;28;20106;-47
2023/04/15 05:47:39;;;;;;;4.88;1.20;;;;;;;12.12;93.20;97909.63;5107802;28;20030;-46
2023/04/15 05:50:05;;;;;;;2.47;1.10;;;;;;;12.11;92.70;97909.84;5090830;28;20055;-46
2023/04/15 05:52:31;;;;;;;2.80;0.75;;;;;;;12.14;93.29;97915.47;5092138;28;20026;-46
2023/04/15 05:54:57;;;;;;;1.90;0.52;;;;;;;12.33;93.83;97904.81;5090801;28;20501;-46
2023/04/15 05:57:23;;;;;;;4.00;0.95;;;;;;;12.41;92.13;97898.41;5092152;28;20032;-46
2023/04/15 05:59:51;;;;;;;2.05;0.60;;;;;;;12.54;91.35;97908.69;5092081;28;20032;-46
2023/04/15 06:02:16;;;;;;;5.38;1.10;;;;;;;12.72;91.18;97902.47;5091884;28;20039;-47
2023/04/15 06:04:42;;;;;;;7.80;1.35;;;;;;;12.78;90.19;97901.53;5091944;28;20023;-46
2023/04/15 06:07:08;;;;;;;16.05;14.57;;;;;;;12.77;90.57;97899.91;5091363;28;20030;-47
2023/04/15 06:09:35;;;;;;;10.05;8.88;;;;;;;12.79;90.57;97900.47;5092065;28;20024;-46
2023/04/15 06:12:01;;;;;;;10.10;7.43;;;;;;;12.86;91.19;97911.69;5091848;28;20027;-46
2023/04/15 06:14:27;;;;;;;5.07;1.90;;;;;;;12.92;88.99;97894.94;5091848;28;20031;-46
2023/04/15 06:16:52;;;;;;;4.18;1.63;;;;;;;12.95;84.92;97901.56;5107428;28;20032;-46
2023/04/15 06:19:18;;;;;;;3.72;1.13;;;;;;;13.06;86.84;97921.81;5091753;28;20477;-46
2023/04/15 06:21:45;;;;;;;3.25;1.17;;;;;;;13.26;87.63;97928.47;5091806;28;20023;-46
2023/04/15 06:24:11;;;;;;;5.43;1.52;;;;;;;13.34;88.22;97930.75;5107492;28;20405;-46
2023/04/15 06:26:37;;;;;;;6.85;1.35;;;;;;;13.46;88.56;97938.59;5090552;28;20149;-47
2023/04/15 06:29:02;;;;;;;4.90;1.13;;;;;;;13.59;88.89;97935.69;5107192;28;20501;-46
2023/04/15 06:31:29;;;;;;;2.30;1.10;;;;;;;13.71;88.11;97946.97;5092046;28;20032;-46
2023/04/15 06:33:55;;;;;;;5.85;1.70;;;;;;;13.68;86.70;97946.63;5090419;28;20490;-46
2023/04/15 06:36:20;;;;;;;8.43;1.70;;;;;;;13.74;87.03;97943.84;5091657;28;20039;-46
2023/04/15 06:38:46;;;;;;;3.30;1.60;;;;;;;13.84;86.83;97951.13;5107275;28;20032;-46
2023/04/15 06:41:12;;;;;;;4.45;1.40;;;;;;;13.70;87.44;97944.56;5091854;28;20107;-47
2023/04/15 06:43:38;;;;;;;4.50;1.30;;;;;;;13.42;85.97;97950.66;5091675;28;20547;-47
2023/04/15 06:46:04;;;;;;;4.88;1.40;;;;;;;13.28;85.73;97960.66;5091630;28;20058;-47
2023/04/15 06:48:30;;;;;;;9.93;1.50;;;;;;;13.24;86.21;97967.44;5091466;28;20027;-47
2023/04/15 06:50:57;;;;;;;5.28;1.33;;;;;;;13.46;85.84;97978.97;5107271;28;20032;-46
2023/04/15 06:53:25;;;;;;;5.57;1.17;;;;;;;13.70;80.92;97973.56;5091782;28;20031;-47
2023/04/15 06:55:51;;;;;;;5.18;1.42;;;;;;;13.81;82.64;97983.25;5090505;28;20402;-47
2023/04/15 06:58:17;;;;;;;6.30;1.45;;;;;;;13.89;82.76;97990.78;5091453;28;20032;-47
2023/04/15 07:00:43;;;;;;;3.22;0.98;;;;;;;13.92;82.28;97990.31;5107137;28;20052;-47
2023/04/15 07:03:10;;;;;;;9.93;2.78;;;;;;;13.97;82.34;97994.84;5091304;28;20051;-47
2023/04/15 07:05:35;;;;;;;8.77;1.60;;;;;;;14.02;81.87;98000.19;5091328;28;20028;-47
2023/04/15 07:08:01;;;;;;;5.07;1.45;;;;;;;14.05;81.63;98005.00;5091372;28;20028;-47
2023/04/15 07:10:27;;;;;;;7.50;1.00;;;;;;;14.01;80.32;97998.63;5106938;28;20097;-47
2023/04/15 07:12:52;;;;;;;6.40;1.55;;;;;;;13.97;79.57;98016.75;5091391;28;20020;-46
2023/04/15 07:15:18;;;;;;;6.32;1.02;;;;;;;14.03;78.66;98016.84;5106974;28;20028;-47
2023/04/15 07:17:44;;;;;;;8.43;1.00;;;;;;;14.06;77.83;98024.28;5092807;28;20500;-46
2023/04/15 07:20:10;;;;;;;5.72;1.30;;;;;;;14.17;75.33;98020.78;5110423;28;20032;-47
2023/04/15 07:22:35;;;;;;;7.32;1.70;;;;;;;14.24;74.17;98025.88;5110842;28;20111;-47
2023/04/15 07:25:01;;;;;;;5.07;1.45;;;;;;;14.24;73.68;98020.59;5076603;28;20124;-46
2023/04/15 07:27:27;;;;;;;5.03;0.80;;;;;;;14.22;73.65;98027.97;5093461;28;20402;-46
2023/04/15 07:29:52;;;;;;;4.18;0.90;;;;;;;14.20;72.92;98038.75;5094561;28;20051;-47
2023/04/15 07:32:18;;;;;;;10.05;1.80;;;;;;;14.21;73.12;98039.56;5110247;28;20089;-47
2023/04/15 07:34:44;;;;;;;9.30;1.20;;;;;;;14.17;71.68;98036.59;5094611;28;20419;-47
2023/04/15 07:37:10;;;;;;;9.38;1.35;;;;;;;14.36;72.11;98034.50;5094524;28;20405;-46
2023/04/15 07:39:36;;;;;;;6.03;0.80;;;;;;;14.78;71.68;98031.47;5110159;28;20028;-46
2023/04/15 07:42:03;;;;;;;7.55;1.15;;;;;;;15.69;69.95;98044.16;5110444;28;20038;-47
2023/04/15 07:44:29;;;;;;;3.15;1.20;;;;;;;16.06;66.11;98034.75;5094753;28;20031;-46
2023/04/15 07:46:55;;;;;;;5.50;1.60;;;;;;;16.06;66.81;98048.78;5110031;28;20063;-46
2023/04/15 07:49:22;;;;;;;6.40;1.60;;;;;;;15.90;67.35;98039.13;5094258;28;20069;-46
2023/04/15 07:51:48;;;;;;;4.38;1.05;;;;;;;15.73;68.83;98055.88;5109929;28;20501;-46
2023/04/15 07:54:14;;;;;;;11.07;1.75;;;;;;;15.75;69.00;98053.81;5109893;28;20065;-46
2023/04/15 07:56:40;;;;;;;7.93;1.90;;;;;;;15.71;69.27;98057.94;5109789;28;20085;-47
2023/04/15 07:59:08;;;;;;;9.50;1.95;;;;;;;15.67;66.38;98058.69;5094048;28;20030;-47
2023/04/15 08:01:34;;;;;;;9.27;1.38;;;;;;;15.66;67.84;98052.59;5094026;28;20053;-46
2023/04/15 08:03:59;;;;;;;8.30;1.52;;;;;;;15.70;67.44;98051.06;5094012;28;20032;-47
2023/04/15 08:06:26;;;;;;;10.05;1.20;;;;;;;15.76;66.16;98059.88;5092698;28;20035;-47
2023/04/15 08:08:53;;;;;;;2.67;1.00;;;;;;;15.70;65.93;98053.72;5093829;28;20035;-47
2023/04/15 08:11:20;;;;;;;4.07;1.30;;;;;;;15.73;64.82;98060.38;5093916;28;20024;-47
2023/04/15 08:13:46;;;;;;;2.22;1.08;;;;;;;15.85;64.54;98061.00;5094104;28;20055;-47
2023/04/15 08:16:20;;;;;;;5.60;1.10;;;;;;;16.07;63.04;98074.19;5093808;28;20543;-46
2023/04/15 08:18:51;;;;;;;3.70;0.68;;;;;;;16.30;61.04;98075.72;5109346;28;20028;-46
2023/04/15 08:21:18;;;;;;;7.00;1.15;;;;;;;16.30;59.42;98080.25;5092422;28;20028;-46
2023/04/15 08:23:46;;;;;;;6.55;0.88;;;;;;;16.11;59.74;98074.50;5109286;28;20039;-46
2023/04/15 08:26:12;;;;;;;4.38;0.70;;;;;;;16.03;54.59;98080.25;5109520;28;20056;-46
2023/04/15 08:28:39;;;;;;;1.95;0.60;;;;;;;16.04;52.92;98074.72;5092810;28;20059;-47
2023/04/15 08:31:05;;;;;;;6.28;1.40;;;;;;;15.96;51.91;98093.69;5093300;28;20048;-46
2023/04/15 08:33:31;;;;;;;2.63;0.60;;;;;;;15.95;55.23;98106.09;5093506;28;20051;-46
2023/04/15 08:35:57;;;;;;;3.72;0.85;;;;;;;15.88;54.50;98102.06;5092087;28;20062;-46
2023/04/15 08:38:23;;;;;;;3.63;0.75;;;;;;;15.91;53.02;98101.56;5093321;28;20035;-46
2023/04/15 08:40:49;;;;;;;2.40;0.93;;;;;;;15.74;51.29;98117.53;5093260;28;20067;-46
2023/04/15 08:43:25;;;;;;;4.70;0.90;;;;;;;15.68;51.37;98111.34;5093321;28;20051;-47
2023/04/15 08:45:52;;;;;;;3.03;0.90;;;;;;;15.99;51.33;98119.66;5108887;28;20029;-46
2023/04/15 08:48:18;;;;;;;2.45;0.80;;;;;;;16.18;50.30;98117.47;5093147;28;20028;-46
2023/04/15 08:50:45;;;;;;;2.25;0.90;;;;;;;16.30;50.00;98115.44;5093313;28;20032;-46
2023/04/15 08:53:11;;;;;;;3.42;1.02;;;;;;;16.59;49.83;98120.44;5092075;28;20031;-46
2023/04/15 08:55:43;;;;;;;7.15;0.90;;;;;;;16.86;48.90;98122.25;5109006;28;20481;-47
2023/04/15 08:58:10;;;;;;;6.88;1.00;;;;;;;17.12;49.74;98124.03;5093026;28;20032;-47
2023/04/15 09:00:37;;;;;;;6.80;1.08;;;;;;;16.89;49.53;98117.25;5091541;28;20038;-47
2023/04/15 09:03:05;;;;;;;2.75;0.60;;;;;;;16.47;52.46;98111.88;5091810;28;20028;-47
2023/04/15 09:05:35;;;;;;;5.90;1.05;;;;;;;16.02;52.15;98128.94;5092826;28;20028;-47
2023/04/15 09:08:01;;;;;;;3.67;0.90;;;;;;;15.72;55.19;98140.75;5092789;28;20032;-46
2023/04/15 09:10:28;;;;;;;1.23;0.52;;;;;;;15.63;55.90;98131.66;5108344;28;20024;-46
2023/04/15 09:12:55;;;;;;;7.78;1.95;;;;;;;15.68;54.05;98131.72;5092689;28;20168;-47
2023/04/15 09:15:21;;;;;;;2.53;0.43;;;;;;;15.96;51.57;98125.44;5092901;28;20085;-46
2023/04/15 09:17:47;;;;;;;2.70;0.73;;;;;;;16.58;47.94;98127.59;5092880;28;20023;-47
2023/04/15 09:20:15;;;;;;;1.42;0.65;;;;;;;17.32;46.49;98133.13;5091606;28;20024;-47
2023/04/15 09:22:42;;;;;;;3.95;0.70;;;;;;;18.19;45.33;98137.97;5092813;28;20054;-47
2023/04/15 09:25:14;;;;;;;4.38;0.80;;;;;;;18.79;43.04;98131.09;5108143;28;20097;-47
2023/04/15 09:28:00;;;;;;;1.48;0.50;;;;;;;19.15;42.84;98136.38;5092703;28;20028;-45
2023/04/15 09:30:30;;;;;;;2.88;0.60;;;;;;;19.39;41.12;98143.78;5092208;28;20055;-45
2023/04/15 09:33:09;;;;;;;3.05;0.70;;;;;;;19.81;39.84;98145.25;5092646;28;20444;-45
2023/04/15 09:35:36;;;;;;;2.20;0.45;;;;;;;19.65;39.10;98142.59;5091034;28;20032;-45
2023/04/15 09:38:04;;;;;;;2.70;0.80;;;;;;;19.48;39.05;98150.13;5107902;28;20031;-45
2023/04/15 09:40:35;;;;;;;6.60;0.63;;;;;;;19.24;38.23;98153.41;5090778;28;20118;-45
2023/04/15 09:43:02;;;;;;;1.58;0.60;;;;;;;18.81;38.75;98160.09;5092205;28;20528;-44
2023/04/15 09:45:28;;;;;;;2.33;0.75;;;;;;;18.29;39.99;98151.25;5092169;28;20052;-44
2023/04/15 09:47:56;;;;;;;3.95;0.90;;;;;;;17.74;39.64;98162.25;5092064;28;20074;-44
2023/04/15 09:50:28;;;;;;;1.02;0.40;;;;;;;17.28;40.66;98175.28;5092077;28;20026;-44
2023/04/15 09:52:54;;;;;;;2.58;0.40;;;;;;;16.85;42.16;98166.53;5092118;28;20032;-44
2023/04/15 09:55:20;;;;;;;2.15;0.43;;;;;;;16.69;42.70;98173.53;5092048;28;20028;-44
2023/04/15 09:57:46;;;;;;;4.93;1.17;;;;;;;16.85;42.82;98165.72;5092231;28;20443;-44
2023/04/15 10:00:12;;;;;;;2.15;0.60;;;;;;;16.99;42.89;98171.41;5091964;28;20111;-44
2023/04/15 10:02:42;;;;;;;2.72;0.55;;;;;;;16.91;43.06;98172.66;5107612;28;20036;-44
2023/04/15 10:05:13;;;;;;;1.83;0.50;;;;;;;16.82;43.34;98172.34;5107574;28;20114;-44
2023/04/15 10:07:41;;;;;;;1.40;0.80;;;;;;;16.93;44.20;98174.00;5107806;28;20405;-45
2023/04/15 10:10:08;;;;;;;1.27;0.40;;;;;;;17.16;42.35;98172.84;5090581;28;20051;-44
2023/04/15 10:12:36;;;;;;;1.08;0.50;;;;;;;17.21;41.72;98168.63;5091804;28;20047;-44
2023/04/15 10:15:06;;;;;;;1.20;0.50;;;;;;;17.23;41.94;98171.81;5090758;28;20122;-44
2023/04/15 10:17:35;;;;;;;3.92;0.60;;;;;;;17.16;42.84;98167.53;5092077;28;20028;-44
2023/04/15 10:20:03;;;;;;;1.08;0.60;;;;;;;17.16;48.71;98170.19;5091662;28;20040;-45
2023/04/15 10:22:30;;;;;;;6.53;0.90;;;;;;;16.88;50.31;98184.59;5091745;28;20024;-44
2023/04/15 10:24:56;;;;;;;3.05;0.73;;;;;;;16.46;51.90;98187.91;5091783;28;20511;-44
2023/04/15 10:27:23;;;;;;;3.78;1.17;;;;;;;16.34;53.18;98195.19;5107359;28;20028;-45
2023/04/15 10:29:50;;;;;;;2.13;0.82;;;;;;;16.46;52.20;98190.56;5091409;28;20044;-45
2023/04/15 10:32:20;;;;;;;2.05;0.70;;;;;;;16.38;49.57;98199.75;5091648;28;20031;-44
2023/04/15 10:34:48;;;;;;;1.58;0.60;;;;;;;16.29;48.66;98176.59;5091559;28;20026;-44
2023/04/15 10:37:32;;;;;;;3.08;0.70;;;;;;;15.99;45.94;98185.81;5091623;28;20494;-44
2023/04/15 10:39:58;;;;;;;0.98;0.30;;;;;;;15.53;45.98;98188.69;5090262;28;20051;-44
2023/04/15 10:42:24;;;;;;;5.43;0.88;;;;;;;15.27;48.38;98205.22;5091629;28;20545;-47
2023/04/15 10:44:55;;;;;;;6.15;0.93;;;;;;;15.70;50.07;98207.16;5090373;28;20097;-47
2023/04/15 10:47:21;;;;;;;1.33;0.50;;;;;;;16.30;50.21;98213.44;5091567;28;20028;-46
2023/04/15 10:49:51;;;;;;;2.38;0.60;;;;;;;16.38;50.13;98205.03;5091294;28;20085;-47
2023/04/15 10:52:23;;;;;;;1.85;0.93;;;;;;;16.44;48.85;98211.19;5092555;28;20035;-47
2023/04/15 10:54:49;;;;;;;1.30;0.65;;;;;;;16.15;48.01;98211.41;5094105;28;20032;-46
2023/04/15 10:57:21;;;;;;;9.88;0.80;;;;;;;16.14;48.35;98220.41;5111009;28;20028;-47
2023/04/15 11:00:05;;;;;;;4.13;0.60;;;;;;;16.24;50.74;98218.91;5095234;28;20606;-46
2023/04/15 11:02:46;;;;;;;6.88;0.80;;;;;;;16.38;55.74;98225.44;5095275;28;20077;-46
2023/04/15 11:05:16;;;;;;;2.30;0.40;;;;;;;16.32;51.82;98215.84;5095114;28;20024;-47
2023/04/15 11:07:53;;;;;;;5.97;0.60;;;;;;;15.86;52.57;98228.53;5095125;28;20024;-46
2023/04/15 11:10:25;;;;;;;4.30;0.40;;;;;;;15.56;53.48;98229.72;5093795;28;20051;-47
2023/04/15 11:13:00;;;;;;;7.90;0.43;;;;;;;15.46;54.75;98237.50;5095008;28;20028;-47
2023/04/15 11:15:32;;;;;;;4.88;0.70;;;;;;;15.70;53.87;98228.31;5093748;28;20500;-45
2023/04/15 11:18:20;;;;;;;4.15;0.50;;;;;;;15.97;52.22;98248.78;5095284;28;20093;-46
2023/04/15 11:20:58;;;;;;;5.28;0.52;;;;;;;16.72;50.35;98241.09;5094828;28;20378;-47
2023/04/15 11:23:43;;;;;;;4.18;0.63;;;;;;;17.58;45.70;98230.38;5093608;28;20059;-47
2023/04/15 11:26:10;;;;;;;1.00;0.30;;;;;;;18.40;41.76;98226.47;5094827;28;20023;-47
2023/04/15 11:28:38;;;;;;;2.78;0.45;;;;;;;18.89;40.25;98216.19;5093475;28;20032;-44